Time;durP1;ratioP1;P1;durP2;ratioP2;P2;SDS_P1;SDS_P2;PMS_P1;PMS_P2;Temp;Humidity;BMP_temperature;BMP_pressure;BME280_temperature;BME280_humidity;BME280_pressure;Samples;Min_cycle;Max_cycle;Signal;HPM_P1;HPM_P2
2020/12/20 03:05:19;;;;;;;16.33;15.43;;;7.20;99.90;;;;;;6038898;23;20460;-79
2020/12/20 03:07:46;;;;;;;16.40;15.20;;;7.20;99.90;;;;;;4966788;28;20499;-80
2020/12/20 03:10:13;;;;;;;16.07;14.70;;;7.20;99.90;;;;;;4963472;28;20479;-80
2020/12/20 03:12:40;;;;;;;17.13;15.77;;;7.20;99.90;;;;;;4957938;28;20466;-81
2020/12/20 03:15:06;;;;;;;16.00;15.10;;;7.20;99.90;;;;;;4952424;29;20449;-84
2020/12/20 03:17:32;;;;;;;15.80;14.60;;;7.20;99.90;;;;;;4952182;29;20938;-80
2020/12/20 03:19:58;;;;;;;15.73;14.50;;;7.10;99.90;;;;;;4952087;29;20950;-79
2020/12/20 03:22:25;;;;;;;15.50;14.50;;;7.10;99.90;;;;;;4952881;29;20460;-89
2020/12/20 03:24:52;;;;;;;16.47;15.23;;;7.10;99.90;;;;;;4952979;28;20516;-82
2020/12/20 03:27:18;;;;;;;15.70;14.60;;;7.10;99.90;;;;;;4951999;29;20495;-83
2020/12/20 03:29:44;;;;;;;17.53;16.33;;;7.10;99.90;;;;;;4952144;29;20459;-82
2020/12/20 03:32:10;;;;;;;15.60;14.60;;;7.10;99.90;;;;;;4952219;29;20470;-83
2020/12/20 03:34:36;;;;;;;14.63;13.73;;;7.10;99.90;;;;;;4952576;29;20511;-82
2020/12/20 03:37:03;;;;;;;15.40;14.30;;;7.10;99.90;;;;;;4951910;29;20948;-82
2020/12/20 03:39:30;;;;;;;14.27;13.37;;;7.10;99.90;;;;;;4943932;29;20846;-81
2020/12/20 03:41:56;;;;;;;15.13;13.90;;;7.10;99.90;;;;;;4951842;29;20460;-81
2020/12/20 03:44:23;;;;;;;15.40;14.50;;;7.10;99.90;;;;;;4952205;29;20950;-81
2020/12/20 03:46:49;;;;;;;16.67;15.57;;;7.10;99.90;;;;;;4952153;29;20487;-81
2020/12/20 03:49:15;;;;;;;15.80;14.50;;;7.10;99.90;;;;;;4952442;29;20455;-79
2020/12/20 03:51:41;;;;;;;14.87;13.87;;;7.10;99.90;;;;;;4968676;29;20459;-80
2020/12/20 03:54:08;;;;;;;15.70;14.80;;;7.10;99.90;;;;;;4969088;29;20459;-80
2020/12/20 03:56:35;;;;;;;16.40;15.10;;;7.10;99.90;;;;;;4953830;29;20462;-81
2020/12/20 03:59:01;;;;;;;16.80;15.50;;;7.10;99.90;;;;;;4957675;28;20776;-80
2020/12/20 04:01:27;;;;;;;17.63;16.33;;;7.00;99.90;;;;;;4959985;28;20452;-80
2020/12/20 04:03:54;;;;;;;16.10;15.10;;;7.00;99.90;;;;;;4961284;28;20452;-80
2020/12/20 04:06:20;;;;;;;16.60;15.17;;;7.00;99.90;;;;;;4957563;28;20518;-84
2020/12/20 04:08:46;;;;;;;16.40;15.20;;;7.00;99.90;;;;;;4961465;28;20454;-85
2020/12/20 04:11:13;;;;;;;15.83;14.83;;;7.10;99.90;;;;;;4958768;28;20460;-84
2020/12/20 04:13:40;;;;;;;16.07;15.00;;;7.10;99.90;;;;;;4956888;28;20452;-84
2020/12/20 04:16:07;;;;;;;15.27;13.90;;;7.10;99.90;;;;;;4969154;28;20499;-82
2020/12/20 04:18:34;;;;;;;16.93;15.83;;;7.00;99.90;;;;;;4959367;28;20460;-84
2020/12/20 04:21:01;;;;;;;16.90;15.70;;;7.10;99.90;;;;;;4957135;28;20463;-84
2020/12/20 04:23:27;;;;;;;15.67;14.43;;;7.10;99.90;;;;;;4959706;28;20459;-83
2020/12/20 04:25:53;;;;;;;15.77;14.37;;;7.10;99.90;;;;;;4958974;28;20450;-84
2020/12/20 04:28:20;;;;;;;16.40;15.20;;;7.10;99.90;;;;;;4958533;28;20510;-82
2020/12/20 04:30:47;;;;;;;16.47;15.07;;;7.10;99.90;;;;;;4958431;28;20447;-82
2020/12/20 04:33:14;;;;;;;16.20;14.83;;;7.10;99.90;;;;;;4961473;28;20804;-82
2020/12/20 04:35:40;;;;;;;16.20;15.20;;;7.10;99.90;;;;;;4956704;28;20440;-82
2020/12/20 04:38:06;;;;;;;16.70;15.43;;;7.10;99.90;;;;;;4963458;28;20447;-87
2020/12/20 04:40:33;;;;;;;14.33;13.33;;;7.10;99.90;;;;;;4961319;28;20465;-85
2020/12/20 04:43:02;;;;;;;14.17;13.20;;;7.10;99.90;;;;;;4962276;28;20441;-84
2020/12/20 04:45:29;;;;;;;15.33;14.43;;;7.10;99.90;;;;;;4962605;28;20487;-86
2020/12/20 04:47:57;;;;;;;15.87;14.47;;;7.10;99.90;;;;;;4962350;28;20495;-85
2020/12/20 04:50:23;;;;;;;15.90;14.60;;;7.10;99.90;;;;;;4964000;28;20455;-85
2020/12/20 04:52:53;;;;;;;15.47;14.30;;;7.10;99.90;;;;;;4963662;28;20689;-86
2020/12/20 04:55:20;;;;;;;14.63;13.70;;;7.00;99.90;;;;;;4962625;28;20447;-86
2020/12/20 04:57:47;;;;;;;13.80;12.80;;;7.00;99.90;;;;;;4963687;28;20471;-85
2020/12/20 05:00:13;;;;;;;16.00;14.70;;;7.10;99.90;;;;;;4964572;28;20810;-85
2020/12/20 05:02:40;;;;;;;16.40;15.20;;;7.10;99.90;;;;;;4959667;28;20446;-85
2020/12/20 05:05:08;;;;;;;16.50;15.40;;;7.10;99.90;;;;;;4963408;28;20477;-83
2020/12/20 05:07:35;;;;;;;17.07;15.97;;;7.10;99.90;;;;;;4959841;28;20886;-83
2020/12/20 05:10:01;;;;;;;16.33;15.27;;;7.00;99.90;;;;;;4955091;29;20500;-83
2020/12/20 05:12:29;;;;;;;15.47;14.47;;;7.00;99.90;;;;;;4954925;29;20531;-84
2020/12/20 05:14:55;;;;;;;16.10;14.70;;;7.10;99.90;;;;;;4955216;29;20486;-84
2020/12/20 05:17:22;;;;;;;14.40;13.50;;;7.10;99.90;;;;;;4963705;29;20454;-83
2020/12/20 05:19:48;;;;;;;16.13;14.77;;;7.10;99.90;;;;;;4990550;28;20964;-87
2020/12/20 05:22:19;;;;;;;16.27;15.07;;;7.10;99.90;;;;;;4982907;28;20731;-85
2020/12/20 05:24:47;;;;;;;16.40;15.40;;;7.10;99.90;;;;;;4976325;28;20459;-85
2020/12/20 05:27:24;;;;;;;16.63;15.37;;;7.10;99.90;;;;;;4973473;28;20489;-84
2020/12/20 05:29:51;;;;;;;15.87;14.90;;;7.10;99.90;;;;;;4973595;28;20521;-79
2020/12/20 05:32:28;;;;;;;16.80;15.50;;;7.10;99.90;;;;;;4973365;28;20508;-79
2020/12/20 05:34:59;;;;;;;15.30;14.10;;;7.10;99.90;;;;;;4972991;28;20792;-78
2020/12/20 05:37:29;;;;;;;15.60;14.60;;;7.10;99.90;;;;;;4973493;28;20454;-81
2020/12/20 05:39:56;;;;;;;15.90;14.77;;;7.10;99.90;;;;;;4973301;28;20483;-81
2020/12/20 05:42:24;;;;;;;15.03;14.10;;;7.20;99.90;;;;;;4973394;28;20459;-81
2020/12/20 05:44:50;;;;;;;13.83;13.03;;;7.10;99.90;;;;;;4973277;28;20447;-82
2020/12/20 05:47:24;;;;;;;16.43;15.43;;;7.10;99.90;;;;;;4972666;28;20553;-82
2020/12/20 05:49:50;;;;;;;14.57;13.57;;;7.10;99.90;;;;;;4972401;28;20539;-82
2020/12/20 05:52:16;;;;;;;14.43;13.43;;;7.10;99.90;;;;;;4973056;28;20462;-82
2020/12/20 05:54:44;;;;;;;15.10;13.90;;;7.10;99.90;;;;;;4972853;28;20964;-80
2020/12/20 05:57:12;;;;;;;15.90;14.70;;;7.10;99.90;;;;;;4972926;28;20948;-80
2020/12/20 05:59:39;;;;;;;15.67;14.63;;;7.10;99.90;;;;;;4973180;28;20458;-80
2020/12/20 06:02:06;;;;;;;15.90;14.70;;;7.10;99.90;;;;;;4973037;28;20458;-85
2020/12/20 06:04:34;;;;;;;13.83;13.07;;;7.10;99.90;;;;;;4975924;28;20495;-87
2020/12/20 06:07:00;;;;;;;14.50;13.70;;;7.10;99.90;;;;;;4987002;28;20481;-88
2020/12/20 06:09:28;;;;;;;13.47;12.53;;;7.10;99.90;;;;;;4994115;28;20455;-80
2020/12/20 06:11:57;;;;;;;14.73;13.53;;;7.10;99.90;;;;;;4982130;28;20459;-80
2020/12/20 06:14:25;;;;;;;14.40;13.50;;;7.00;99.90;;;;;;4972732;28;20463;-79
2020/12/20 06:17:14;;;;;;;14.17;13.07;;;7.00;99.90;;;;;;4972910;28;20957;-80
2020/12/20 06:19:56;;;;;;;15.00;14.00;;;7.10;99.90;;;;;;4972569;28;20490;-79
2020/12/20 06:22:24;;;;;;;15.70;14.73;;;7.10;99.90;;;;;;4970094;28;20455;-80
2020/12/20 06:24:52;;;;;;;16.07;14.93;;;7.00;99.90;;;;;;4972450;28;20815;-79
2020/12/20 06:27:23;;;;;;;15.80;14.80;;;7.00;99.90;;;;;;4972234;28;20505;-80
2020/12/20 06:29:54;;;;;;;13.77;12.83;;;7.00;99.90;;;;;;4972429;28;20455;-80
2020/12/20 06:32:28;;;;;;;14.93;13.97;;;7.00;99.90;;;;;;4972320;28;20490;-80
2020/12/20 06:34:56;;;;;;;13.83;12.87;;;7.00;99.90;;;;;;4972195;28;20464;-79
2020/12/20 06:37:22;;;;;;;15.53;14.53;;;7.00;99.90;;;;;;4972163;28;20512;-80
2020/12/20 06:39:49;;;;;;;14.90;13.87;;;6.90;99.90;;;;;;4972297;28;20491;-79
2020/12/20 06:42:15;;;;;;;14.50;13.37;;;6.90;99.90;;;;;;4972085;28;20489;-79
2020/12/20 06:44:42;;;;;;;15.63;14.63;;;6.90;99.90;;;;;;4972166;28;20587;-81
2020/12/20 06:47:08;;;;;;;14.90;13.70;;;6.90;99.90;;;;;;4971972;28;20498;-80
2020/12/20 06:49:37;;;;;;;14.40;13.40;;;6.90;99.90;;;;;;4971635;28;20462;-79
2020/12/20 06:52:24;;;;;;;12.60;11.70;;;6.90;99.90;;;;;;4972272;28;20545;-85
2020/12/20 06:55:09;;;;;;;15.13;14.07;;;6.90;99.90;;;;;;4971804;28;20462;-84
2020/12/20 06:57:56;;;;;;;14.23;13.40;;;6.90;99.90;;;;;;4972032;28;20453;-84
2020/12/20 07:00:39;;;;;;;14.63;13.43;;;6.90;99.90;;;;;;4971573;28;20968;-84
2020/12/20 07:03:05;;;;;;;14.00;13.10;;;6.90;99.90;;;;;;4971824;28;20847;-86
2020/12/20 07:05:34;;;;;;;16.03;14.73;;;6.90;99.90;;;;;;4971735;28;20496;-85
2020/12/20 07:08:11;;;;;;;16.97;15.87;;;6.90;99.90;;;;;;4971840;28;21301;-84
2020/12/20 07:10:42;;;;;;;14.80;13.90;;;6.90;99.90;;;;;;4971862;28;20908;-84
2020/12/20 07:13:11;;;;;;;15.30;14.30;;;6.90;99.90;;;;;;4972005;28;20450;-85
2020/12/20 07:15:46;;;;;;;13.10;12.30;;;6.90;99.90;;;;;;4971921;28;20453;-85
2020/12/20 07:18:38;;;;;;;12.83;12.13;;;7.00;99.90;;;;;;4971348;28;20823;-84
2020/12/20 07:21:04;;;;;;;13.60;12.57;;;7.00;99.90;;;;;;4972790;28;20451;-84
2020/12/20 07:23:31;;;;;;;14.83;13.67;;;7.00;99.90;;;;;;4971272;28;20564;-84
2020/12/20 07:25:57;;;;;;;15.93;14.77;;;7.00;99.90;;;;;;4971666;28;20457;-84
2020/12/20 07:28:24;;;;;;;15.07;13.97;;;7.00;99.90;;;;;;4971395;28;20501;-84
2020/12/20 07:30:51;;;;;;;17.00;16.10;;;6.90;99.90;;;;;;4971541;28;20948;-84
2020/12/20 07:33:17;;;;;;;14.07;13.17;;;6.90;99.90;;;;;;4971405;28;20949;-84
2020/12/20 07:35:47;;;;;;;13.87;13.07;;;6.90;99.90;;;;;;4971103;28;20451;-83
2020/12/20 07:38:14;;;;;;;15.10;14.07;;;6.90;99.90;;;;;;4971369;28;20822;-84
2020/12/20 07:40:40;;;;;;;15.10;14.07;;;6.90;99.90;;;;;;4971670;28;20537;-84
2020/12/20 07:43:07;;;;;;;15.67;14.77;;;6.90;99.90;;;;;;4972038;28;20516;-84
2020/12/20 07:45:33;;;;;;;16.27;15.17;;;6.90;99.90;;;;;;4971415;28;20451;-83
2020/12/20 07:48:01;;;;;;;16.10;15.00;;;6.90;99.90;;;;;;4971515;28;20506;-83
2020/12/20 07:50:27;;;;;;;15.70;14.40;;;7.00;99.90;;;;;;4971493;28;20457;-81
2020/12/20 07:52:54;;;;;;;14.37;13.47;;;7.00;99.90;;;;;;4971588;28;20454;-74
2020/12/20 07:55:20;;;;;;;14.70;13.40;;;7.00;99.90;;;;;;4970890;28;20440;-74
2020/12/20 07:57:48;;;;;;;16.20;15.10;;;7.00;99.90;;;;;;4968155;28;20456;-83
2020/12/20 08:00:15;;;;;;;15.40;14.43;;;7.10;99.90;;;;;;4962362;28;20458;-83
2020/12/20 08:02:41;;;;;;;15.07;14.07;;;7.10;99.90;;;;;;4958479;28;20449;-85
2020/12/20 08:05:10;;;;;;;16.33;15.23;;;7.10;99.90;;;;;;4966882;28;20498;-86
2020/12/20 08:07:36;;;;;;;14.73;13.73;;;7.20;99.90;;;;;;4965661;28;20546;-87
2020/12/20 08:10:03;;;;;;;15.73;14.53;;;7.20;99.90;;;;;;4979180;28;20451;-86
2020/12/20 08:12:30;;;;;;;13.57;12.77;;;7.20;99.90;;;;;;4974368;28;20450;-82
2020/12/20 08:15:05;;;;;;;14.67;13.67;;;7.30;99.90;;;;;;4966400;28;20450;-85
2020/12/20 08:17:31;;;;;;;14.60;13.47;;;7.30;99.90;;;;;;4965119;28;20450;-87
2020/12/20 08:20:00;;;;;;;14.90;13.87;;;7.40;99.90;;;;;;4962836;28;20467;-80
2020/12/20 08:22:31;;;;;;;15.97;14.97;;;7.40;99.90;;;;;;4964094;28;20840;-81
2020/12/20 08:24:59;;;;;;;16.57;15.57;;;7.60;99.90;;;;;;4977751;28;20443;-82
2020/12/20 08:27:27;;;;;;;14.40;13.50;;;7.70;99.90;;;;;;4979991;28;20847;-82
2020/12/20 08:29:55;;;;;;;15.23;14.23;;;7.70;99.90;;;;;;4971592;28;20450;-81
2020/12/20 08:32:23;;;;;;;15.03;14.00;;;7.60;99.90;;;;;;4967410;28;20463;-86
2020/12/20 08:34:50;;;;;;;17.13;15.93;;;7.70;99.90;;;;;;4969070;28;20973;-85
2020/12/20 08:37:18;;;;;;;14.60;13.60;;;7.70;99.90;;;;;;4974004;28;20655;-87
2020/12/20 08:39:45;;;;;;;15.93;14.83;;;8.10;99.90;;;;;;4974008;28;20513;-87
2020/12/20 08:42:13;;;;;;;14.53;13.63;;;8.40;99.90;;;;;;4967885;28;20455;-88
2020/12/20 08:44:41;;;;;;;14.90;14.00;;;8.50;99.90;;;;;;4960472;28;20448;-88
2020/12/20 08:47:12;;;;;;;14.10;13.20;;;8.50;99.90;;;;;;4966971;28;20503;-85
2020/12/20 08:49:40;;;;;;;15.57;14.57;;;8.40;99.90;;;;;;4969997;28;20448;-88
2020/12/20 08:52:11;;;;;;;15.03;14.23;;;8.20;99.90;;;;;;4978306;28;20452;-88
2020/12/20 08:54:38;;;;;;;16.47;15.37;;;8.20;99.90;;;;;;4974871;28;20564;-86
2020/12/20 08:57:07;;;;;;;17.13;15.97;;;8.00;99.90;;;;;;4961229;28;20448;-83
2020/12/20 08:59:35;;;;;;;16.53;15.53;;;8.00;99.90;;;;;;4961874;28;20542;-84
2020/12/20 09:02:03;;;;;;;15.10;14.13;;;7.90;99.90;;;;;;4961597;28;20441;-84
2020/12/20 09:04:31;;;;;;;14.90;13.80;;;7.80;99.90;;;;;;4963179;28;20897;-84
2020/12/20 09:07:03;;;;;;;14.77;13.70;;;7.80;99.90;;;;;;4963424;28;20566;-84
2020/12/20 09:09:29;;;;;;;16.63;15.20;;;7.80;99.90;;;;;;4960977;28;20504;-85
2020/12/20 09:12:17;;;;;;;15.13;14.13;;;7.90;99.90;;;;;;4961956;28;20794;-86
2020/12/20 09:15:03;;;;;;;15.63;14.57;;;7.90;99.90;;;;;;4961487;28;20799;-86
2020/12/20 09:17:31;;;;;;;14.93;13.80;;;8.00;99.90;;;;;;4962741;28;20945;-85
2020/12/20 09:19:57;;;;;;;14.90;14.00;;;8.20;99.90;;;;;;4963702;28;20449;-85
2020/12/20 09:22:52;;;;;;;16.30;15.20;;;8.50;99.90;;;;;;4958621;28;20448;-82
2020/12/20 09:25:34;;;;;;;15.60;14.50;;;8.90;99.90;;;;;;4960571;28;20973;-77
2020/12/20 09:28:03;;;;;;;15.47;14.57;;;9.30;99.90;;;;;;4962831;28;20903;-78
2020/12/20 09:30:31;;;;;;;15.63;14.73;;;9.70;99.90;;;;;;4962402;28;20457;-79
2020/12/20 09:32:57;;;;;;;15.50;14.40;;;9.70;99.90;;;;;;4959197;28;20448;-80
2020/12/20 09:35:24;;;;;;;15.40;14.50;;;9.70;99.90;;;;;;4959908;28;20455;-79
2020/12/20 09:37:50;;;;;;;16.40;15.40;;;9.90;99.90;;;;;;4961506;28;20447;-80
2020/12/20 09:40:16;;;;;;;15.93;14.87;;;10.00;99.90;;;;;;4963356;28;20440;-81
2020/12/20 09:42:43;;;;;;;18.70;17.50;;;10.20;99.90;;;;;;4965307;28;20506;-82
2020/12/20 09:45:11;;;;;;;15.10;14.17;;;10.20;99.90;;;;;;4963385;28;20527;-82
2020/12/20 09:47:39;;;;;;;15.90;14.90;;;10.30;99.90;;;;;;4962922;28;20487;-80
2020/12/20 09:50:06;;;;;;;16.23;15.03;;;10.70;99.90;;;;;;4962066;28;20450;-82
2020/12/20 09:52:34;;;;;;;16.37;15.30;;;10.60;99.90;;;;;;4960925;28;20508;-83
2020/12/20 09:55:00;;;;;;;15.73;14.70;;;10.80;99.90;;;;;;4961139;28;20445;-82
2020/12/20 09:57:26;;;;;;;16.97;15.73;;;10.40;99.90;;;;;;4961805;28;20509;-85
2020/12/20 09:59:53;;;;;;;17.07;15.97;;;10.50;99.90;;;;;;4963244;28;20467;-84
2020/12/20 10:02:20;;;;;;;16.27;15.27;;;10.10;99.90;;;;;;4967896;28;20444;-85
2020/12/20 10:04:46;;;;;;;15.43;14.43;;;9.80;99.90;;;;;;4974268;28;20899;-82
2020/12/20 10:07:12;;;;;;;16.57;15.40;;;9.60;99.90;;;;;;4972476;28;20506;-86
2020/12/20 10:09:38;;;;;;;15.60;14.43;;;9.60;99.90;;;;;;4973215;28;20455;-75
2020/12/20 10:12:05;;;;;;;15.57;14.47;;;9.50;99.90;;;;;;4972541;28;20455;-75
2020/12/20 10:14:32;;;;;;;15.80;14.80;;;9.40;99.90;;;;;;4972389;28;20467;-79
2020/12/20 10:16:58;;;;;;;17.00;16.00;;;9.30;99.90;;;;;;4971895;28;20440;-78
2020/12/20 10:19:25;;;;;;;15.60;14.60;;;9.30;99.90;;;;;;4971736;28;20555;-78
2020/12/20 10:21:52;;;;;;;16.00;14.43;;;9.20;99.90;;;;;;4972140;28;20513;-78
2020/12/20 10:24:20;;;;;;;15.50;14.40;;;9.30;99.90;;;;;;4972841;28;20447;-78
2020/12/20 10:26:47;;;;;;;15.63;14.60;;;9.30;99.90;;;;;;4971700;28;20512;-78
2020/12/20 10:29:15;;;;;;;14.60;13.70;;;9.40;99.90;;;;;;4971785;28;20507;-78
2020/12/20 10:31:42;;;;;;;15.80;14.80;;;9.20;99.90;;;;;;4971738;28;20451;-78
2020/12/20 10:34:08;;;;;;;17.60;16.40;;;9.20;99.90;;;;;;4971279;28;20460;-78
2020/12/20 10:36:35;;;;;;;14.53;13.53;;;9.20;99.90;;;;;;4971461;28;20467;-79
2020/12/20 10:39:02;;;;;;;15.53;14.53;;;9.10;99.90;;;;;;4971675;28;20494;-78
2020/12/20 10:41:34;;;;;;;16.10;14.80;;;9.30;99.90;;;;;;4971967;28;20451;-78
2020/12/20 10:44:00;;;;;;;15.00;14.10;;;9.30;99.90;;;;;;4972364;28;20820;-79
2020/12/20 10:46:26;;;;;;;14.93;13.93;;;9.30;99.90;;;;;;4973075;28;20451;-79
2020/12/20 10:48:53;;;;;;;16.10;15.00;;;9.30;99.90;;;;;;4973954;28;20455;-79
2020/12/20 10:51:20;;;;;;;14.80;13.63;;;9.40;99.90;;;;;;4973524;28;20449;-79
2020/12/20 10:53:47;;;;;;;16.63;15.33;;;9.40;99.90;;;;;;4972743;28;20531;-78
2020/12/20 10:56:15;;;;;;;14.50;13.60;;;9.40;99.90;;;;;;4971982;28;20505;-78
2020/12/20 10:58:41;;;;;;;16.93;15.70;;;9.30;99.90;;;;;;4971812;28;20462;-78
2020/12/20 11:01:08;;;;;;;16.10;14.90;;;9.40;99.90;;;;;;4977872;28;20456;-78
2020/12/20 11:03:34;;;;;;;16.60;15.30;;;9.40;99.90;;;;;;4981944;28;20447;-78
2020/12/20 11:06:00;;;;;;;16.40;15.27;;;9.50;99.90;;;;;;4972233;28;20672;-78
2020/12/20 11:08:27;;;;;;;16.03;14.93;;;9.60;99.90;;;;;;4970746;28;20491;-79
2020/12/20 11:10:54;;;;;;;15.97;14.70;;;9.70;99.90;;;;;;4971515;28;20460;-78
2020/12/20 11:13:20;;;;;;;15.53;14.33;;;9.80;99.90;;;;;;4970559;28;20453;-79
2020/12/20 11:15:47;;;;;;;15.37;14.13;;;10.00;99.90;;;;;;4970868;28;20456;-78
2020/12/20 11:18:13;;;;;;;15.07;14.00;;;9.90;99.90;;;;;;4971046;28;20452;-79
2020/12/20 11:20:39;;;;;;;15.53;14.43;;;9.90;99.90;;;;;;4970608;28;20452;-80
2020/12/20 11:23:06;;;;;;;17.50;16.30;;;9.90;99.90;;;;;;4971175;28;20889;-80
2020/12/20 11:25:32;;;;;;;15.63;14.57;;;10.10;99.90;;;;;;4970634;28;20449;-80
2020/12/20 11:27:59;;;;;;;15.37;14.17;;;10.20;99.90;;;;;;4970594;28;20487;-80
2020/12/20 11:30:25;;;;;;;15.57;14.47;;;10.50;99.90;;;;;;4970807;28;20482;-80
2020/12/20 11:32:51;;;;;;;16.87;15.60;;;10.50;99.90;;;;;;4971050;28;20514;-81
2020/12/20 11:35:18;;;;;;;18.87;17.23;;;10.70;99.90;;;;;;4970494;28;20455;-80
2020/12/20 11:37:45;;;;;;;18.07;16.70;;;10.60;99.90;;;;;;4970751;28;20456;-81
2020/12/20 11:40:11;;;;;;;17.67;16.50;;;10.70;99.90;;;;;;4970749;28;20467;-80
2020/12/20 11:42:37;;;;;;;15.50;14.50;;;10.80;99.90;;;;;;4970630;28;20547;-80
2020/12/20 11:45:05;;;;;;;16.60;15.53;;;10.60;99.90;;;;;;4971018;28;20515;-80
2020/12/20 11:47:31;;;;;;;15.00;14.00;;;10.40;99.90;;;;;;4972944;28;20493;-80
2020/12/20 11:49:57;;;;;;;16.07;14.90;;;10.40;99.90;;;;;;4974527;28;20510;-80
2020/12/20 11:52:27;;;;;;;16.43;15.20;;;10.50;99.90;;;;;;4974657;28;20454;-80
2020/12/20 11:54:53;;;;;;;16.60;15.50;;;10.60;99.90;;;;;;4974616;28;20604;-79
2020/12/20 11:57:19;;;;;;;18.20;16.70;;;10.60;99.90;;;;;;4974354;28;20459;-80
2020/12/20 11:59:45;;;;;;;14.50;13.43;;;10.60;99.90;;;;;;4974742;28;20452;-79
2020/12/20 12:02:12;;;;;;;15.57;14.60;;;10.80;99.90;;;;;;4974496;28;20941;-79
2020/12/20 12:04:39;;;;;;;16.00;15.10;;;11.00;99.90;;;;;;4974614;28;20471;-80
2020/12/20 12:07:05;;;;;;;15.67;14.67;;;11.10;99.90;;;;;;4974236;28;21080;-80
2020/12/20 12:09:31;;;;;;;14.43;13.50;;;10.90;99.90;;;;;;4973876;28;20452;-80
2020/12/20 12:11:57;;;;;;;16.13;15.03;;;10.90;99.90;;;;;;4974441;28;20455;-80
2020/12/20 12:14:24;;;;;;;15.07;14.07;;;11.00;99.90;;;;;;4974198;28;20459;-80
2020/12/20 12:16:50;;;;;;;17.10;15.90;;;11.00;99.90;;;;;;4974352;28;20803;-80
2020/12/20 12:19:17;;;;;;;15.60;14.60;;;10.90;99.90;;;;;;4973871;28;20823;-80
2020/12/20 12:21:43;;;;;;;15.93;15.03;;;11.00;99.90;;;;;;4974696;28;20509;-80
2020/12/20 12:24:09;;;;;;;16.20;15.20;;;11.20;99.90;;;;;;4974606;28;20455;-80
2020/12/20 12:26:35;;;;;;;16.70;15.60;;;11.30;99.90;;;;;;4974525;28;20447;-80
2020/12/20 12:29:01;;;;;;;18.10;16.90;;;11.30;99.90;;;;;;4974406;28;20457;-81
2020/12/20 12:31:28;;;;;;;16.03;15.00;;;11.50;99.90;;;;;;4974302;28;20971;-81
2020/12/20 12:33:54;;;;;;;15.70;14.60;;;11.40;99.90;;;;;;4974544;28;20457;-81
2020/12/20 12:36:27;;;;;;;17.00;15.70;;;11.30;99.90;;;;;;4974452;28;20451;-80
2020/12/20 12:38:55;;;;;;;16.10;15.00;;;11.10;99.90;;;;;;4974388;28;20538;-80
2020/12/20 12:41:26;;;;;;;15.33;14.40;;;11.10;99.90;;;;;;4974402;28;20461;-80
2020/12/20 12:43:52;;;;;;;18.80;17.40;;;11.10;99.90;;;;;;4974199;28;20482;-81
2020/12/20 12:46:18;;;;;;;16.20;15.20;;;11.20;99.90;;;;;;4974237;28;20819;-81
2020/12/20 12:48:44;;;;;;;16.50;15.50;;;11.20;99.90;;;;;;4973934;28;20487;-78
2020/12/20 12:51:11;;;;;;;16.20;15.00;;;11.30;99.90;;;;;;4974364;28;20454;-78
2020/12/20 12:53:38;;;;;;;16.93;15.83;;;11.30;99.90;;;;;;4974079;28;20460;-79
2020/12/20 12:56:09;;;;;;;18.27;17.07;;;11.20;99.90;;;;;;4973741;28;20452;-81
2020/12/20 12:58:35;;;;;;;16.70;15.63;;;11.20;99.90;;;;;;4973562;28;21032;-80
2020/12/20 13:01:01;;;;;;;17.40;16.30;;;11.20;99.90;;;;;;4973943;28;20466;-80
2020/12/20 13:03:27;;;;;;;17.07;15.93;;;11.30;99.90;;;;;;4973819;28;20456;-80
2020/12/20 13:05:54;;;;;;;16.07;15.03;;;11.30;99.90;;;;;;4973793;28;20484;-81
2020/12/20 13:08:20;;;;;;;15.70;14.73;;;11.60;99.90;;;;;;4973525;28;20495;-81
2020/12/20 13:10:47;;;;;;;15.77;14.83;;;11.60;99.90;;;;;;4960928;28;20516;-81
2020/12/20 13:13:13;;;;;;;15.83;14.83;;;11.80;99.90;;;;;;4954765;29;20456;-81
2020/12/20 13:15:39;;;;;;;16.70;15.50;;;12.00;99.90;;;;;;4960776;29;20460;-81
2020/12/20 13:18:05;;;;;;;15.87;14.90;;;12.30;99.90;;;;;;4969338;29;20453;-81
2020/12/20 13:20:31;;;;;;;18.30;16.80;;;12.40;99.90;;;;;;4967807;28;20481;-81
2020/12/20 13:22:58;;;;;;;16.70;15.40;;;12.40;99.90;;;;;;4955007;29;20864;-81
2020/12/20 13:25:24;;;;;;;15.57;14.50;;;12.50;99.90;;;;;;4954875;29;20460;-81
2020/12/20 13:27:51;;;;;;;16.17;15.17;;;12.60;99.90;;;;;;4954321;29;20489;-81
2020/12/20 13:30:17;;;;;;;16.23;15.10;;;12.50;99.90;;;;;;4954273;29;20453;-81
2020/12/20 13:32:43;;;;;;;18.07;16.57;;;12.00;99.90;;;;;;4953869;29;20457;-82
2020/12/20 13:35:10;;;;;;;19.80;18.30;;;12.00;99.90;;;;;;4953838;29;20456;-82
2020/12/20 13:37:36;;;;;;;16.70;15.50;;;12.00;99.90;;;;;;4954204;29;20456;-81
2020/12/20 13:40:02;;;;;;;15.70;14.60;;;11.90;99.90;;;;;;4953848;29;20456;-80
2020/12/20 13:42:29;;;;;;;16.70;15.60;;;12.10;99.90;;;;;;4973002;28;20797;-81
2020/12/20 13:44:56;;;;;;;17.03;15.83;;;12.00;99.90;;;;;;4973064;28;20456;-81
2020/12/20 13:47:22;;;;;;;16.20;14.87;;;11.90;99.90;;;;;;4973118;28;20487;-81
2020/12/20 13:49:49;;;;;;;17.53;16.33;;;11.80;99.90;;;;;;4972935;28;20572;-81
2020/12/20 13:52:15;;;;;;;17.33;16.23;;;11.60;99.90;;;;;;4973326;28;20464;-81
2020/12/20 13:54:41;;;;;;;16.97;15.67;;;11.70;99.90;;;;;;4978972;28;20456;-80
2020/12/20 13:57:07;;;;;;;17.37;16.07;;;11.70;99.90;;;;;;4986124;28;20451;-81
2020/12/20 13:59:33;;;;;;;17.63;16.10;;;11.90;99.90;;;;;;4973797;28;20456;-80
2020/12/20 14:02:00;;;;;;;18.07;16.67;;;12.00;99.90;;;;;;4972874;28;20511;-80
2020/12/20 14:04:26;;;;;;;17.93;16.63;;;11.90;99.90;;;;;;4972555;28;20476;-82
2020/12/20 14:06:55;;;;;;;18.03;16.90;;;11.90;99.90;;;;;;4972683;28;20487;-81
2020/12/20 14:09:21;;;;;;;18.20;17.00;;;12.10;99.90;;;;;;4971681;28;20490;-81
2020/12/20 14:11:51;;;;;;;16.60;15.33;;;12.10;99.90;;;;;;4972329;28;20455;-81
2020/12/20 14:14:17;;;;;;;16.13;15.00;;;12.20;99.90;;;;;;4972147;28;20467;-81
2020/12/20 14:16:49;;;;;;;16.97;15.80;;;12.40;99.90;;;;;;4971155;28;20452;-81
2020/12/20 14:19:16;;;;;;;16.87;15.67;;;12.40;99.90;;;;;;4972267;28;20831;-81
2020/12/20 14:21:42;;;;;;;18.43;17.23;;;12.20;99.90;;;;;;4972443;28;20451;-81
2020/12/20 14:24:08;;;;;;;18.70;17.37;;;12.00;99.90;;;;;;4972488;28;20458;-82
2020/12/20 14:26:34;;;;;;;16.83;15.63;;;11.70;99.90;;;;;;4972319;28;20462;-81
2020/12/20 14:29:00;;;;;;;17.20;16.07;;;11.60;99.90;;;;;;4972108;28;20616;-81
2020/12/20 14:31:27;;;;;;;15.90;14.90;;;11.50;99.90;;;;;;4958412;28;20474;-81
2020/12/20 14:33:53;;;;;;;18.43;17.03;;;11.40;99.90;;;;;;4961370;28;21262;-81
2020/12/20 14:36:24;;;;;;;18.10;16.90;;;11.20;99.90;;;;;;4960405;28;20538;-81
2020/12/20 14:38:51;;;;;;;18.40;16.80;;;11.10;99.90;;;;;;4961312;28;20444;-81
2020/12/20 14:41:17;;;;;;;19.53;18.23;;;11.10;99.90;;;;;;4960642;28;20499;-81
2020/12/20 14:43:43;;;;;;;19.20;17.60;;;11.10;99.90;;;;;;4961820;28;20440;-82
2020/12/20 14:46:10;;;;;;;18.00;16.70;;;11.00;99.90;;;;;;4960655;28;20451;-82
2020/12/20 14:48:36;;;;;;;16.60;15.50;;;11.00;99.90;;;;;;4960387;28;20483;-81
2020/12/20 14:51:03;;;;;;;18.43;16.97;;;11.00;99.90;;;;;;4961946;28;20444;-82
2020/12/20 14:53:30;;;;;;;17.47;16.27;;;11.10;99.90;;;;;;4963286;28;20451;-81
2020/12/20 14:55:56;;;;;;;17.03;15.97;;;11.20;99.90;;;;;;4960315;28;20790;-80
2020/12/20 14:58:22;;;;;;;17.70;16.50;;;11.00;99.90;;;;;;4953137;29;20449;-81
2020/12/20 15:00:49;;;;;;;16.73;15.63;;;11.00;99.90;;;;;;4971816;28;20459;-80
2020/12/20 15:03:15;;;;;;;17.50;16.20;;;11.10;99.90;;;;;;4971572;28;20647;-80
2020/12/20 15:05:41;;;;;;;18.23;17.03;;;11.20;99.90;;;;;;4971542;28;21016;-81
2020/12/20 15:08:07;;;;;;;17.03;15.83;;;11.20;99.90;;;;;;4969950;28;20538;-82
2020/12/20 15:10:34;;;;;;;17.37;16.07;;;11.20;99.90;;;;;;4961859;28;20962;-81
2020/12/20 15:13:01;;;;;;;17.30;16.10;;;11.30;99.90;;;;;;4956628;28;20460;-80
2020/12/20 15:15:27;;;;;;;19.50;18.10;;;11.50;99.90;;;;;;4960427;28;20459;-80
2020/12/20 15:17:53;;;;;;;17.90;16.70;;;11.50;99.90;;;;;;4960456;28;20830;-81
2020/12/20 15:20:19;;;;;;;17.80;16.50;;;11.60;99.90;;;;;;4961334;28;20452;-80
2020/12/20 15:22:45;;;;;;;17.47;16.07;;;11.60;99.90;;;;;;4959262;28;20444;-81
2020/12/20 15:25:12;;;;;;;16.83;15.63;;;11.50;99.90;;;;;;4960952;28;20955;-81
2020/12/20 15:27:39;;;;;;;17.17;16.00;;;11.30;99.90;;;;;;4959510;28;20496;-81
2020/12/20 15:30:05;;;;;;;17.83;16.53;;;11.10;99.90;;;;;;4961052;28;20439;-80
2020/12/20 15:32:32;;;;;;;21.40;19.63;;;11.00;99.90;;;;;;4960895;28;20575;-80
2020/12/20 15:34:58;;;;;;;18.30;16.90;;;10.90;99.90;;;;;;4959517;28;20448;-79
2020/12/20 15:37:24;;;;;;;21.03;19.07;;;11.00;99.90;;;;;;4960923;28;20440;-81
2020/12/20 15:39:50;;;;;;;19.10;17.63;;;11.00;99.90;;;;;;4960945;28;20480;-80